createdAt,value
2023-01-12T00:02:24.241Z,8.05
2023-01-12T00:04:52.241Z,8.13
2023-01-12T00:07:20.549Z,8.24
2023-01-12T00:09:48.594Z,8.28
2023-01-12T00:12:17.883Z,8.14
2023-01-12T00:14:45.917Z,8.12
2023-01-12T00:17:17.089Z,8.22
2023-01-12T00:19:44.964Z,8.14
2023-01-12T00:22:17.651Z,8.22
2023-01-12T00:24:48.066Z,8.32
2023-01-12T00:27:19.063Z,8.25
2023-01-12T00:29:47.161Z,8.24
2023-01-12T00:32:16.578Z,8.15
2023-01-12T00:34:45.130Z,8.18
2023-01-12T00:37:13.807Z,8.33
2023-01-12T00:39:45.868Z,8.29
2023-01-12T00:42:36.091Z,8.25
2023-01-12T00:45:21.299Z,8.35
2023-01-12T00:47:49.363Z,8.38
2023-01-12T00:50:19.344Z,8.39
2023-01-12T00:52:47.745Z,8.33
2023-01-12T00:55:15.714Z,8.43
2023-01-12T00:57:45.020Z,8.48
2023-01-12T01:00:14.221Z,8.54
2023-01-12T01:02:42.206Z,8.28
2023-01-12T01:05:10.861Z,8.64
2023-01-12T01:07:38.852Z,8.47
2023-01-12T01:10:07.705Z,8.51
2023-01-12T01:12:35.566Z,8.50
2023-01-12T01:15:05.592Z,8.44
2023-01-12T01:17:33.468Z,8.55
2023-01-12T01:20:01.454Z,8.70
2023-01-12T01:22:29.434Z,8.70
2023-01-12T01:24:57.258Z,8.66
2023-01-12T01:27:25.258Z,8.64
2023-01-12T01:29:53.061Z,8.77
2023-01-12T01:32:22.359Z,8.80
2023-01-12T01:34:50.228Z,8.78
2023-01-12T01:37:18.987Z,8.75
2023-01-12T01:39:46.839Z,8.72
2023-01-12T01:42:28.252Z,8.66
2023-01-12T01:44:58.608Z,8.62
2023-01-12T01:47:37.475Z,8.66
2023-01-12T01:50:11.804Z,8.76
2023-01-12T01:52:43.380Z,8.76
2023-01-12T01:55:15.672Z,8.84
2023-01-12T01:57:46.566Z,8.76
2023-01-12T02:00:15.972Z,8.83
2023-01-12T02:02:47.484Z,8.75
2023-01-12T02:05:20.064Z,8.74
2023-01-12T02:07:48.485Z,8.79
2023-01-12T02:10:17.345Z,8.89
2023-01-12T02:13:03.771Z,8.89
2023-01-12T02:15:57.815Z,8.83
2023-01-12T02:18:33.251Z,8.91
2023-01-12T02:21:21.413Z,8.81
2023-01-12T02:24:28.369Z,8.66
2023-01-12T02:27:18.873Z,8.82
2023-01-12T02:30:20.887Z,8.90
2023-01-12T02:33:01.522Z,8.85
2023-01-12T02:35:36.525Z,8.80
2023-01-12T02:38:13.549Z,8.77
2023-01-12T02:40:48.086Z,8.79
2023-01-12T02:43:22.148Z,8.88
2023-01-12T02:45:54.715Z,8.71
2023-01-12T02:48:28.294Z,8.74
2023-01-12T02:51:02.438Z,8.77
2023-01-12T02:53:36.042Z,8.75
2023-01-12T02:56:07.139Z,8.75
2023-01-12T02:58:39.727Z,8.69
2023-01-12T03:01:10.642Z,8.66
2023-01-12T03:03:40.903Z,8.69
2023-01-12T03:06:09.969Z,8.60
2023-01-12T03:08:40.427Z,8.68
2023-01-12T03:11:13.631Z,8.59
2023-01-12T03:13:45.417Z,8.71
2023-01-12T03:16:16.932Z,8.71
2023-01-12T03:18:52.199Z,8.66
2023-01-12T03:21:26.307Z,8.61
2023-01-12T03:23:59.492Z,8.49
2023-01-12T03:26:30.153Z,8.48
2023-01-12T03:29:04.794Z,8.53
2023-01-12T03:31:33.438Z,8.54
2023-01-12T03:34:03.245Z,8.49
2023-01-12T03:36:42.893Z,8.51
2023-01-12T03:39:18.497Z,8.56
2023-01-12T03:41:56.392Z,8.56
2023-01-12T03:44:35.645Z,8.62
2023-01-12T03:47:10.830Z,8.48
2023-01-12T03:49:47.241Z,8.56
2023-01-12T03:52:16.956Z,8.60
2023-01-12T03:54:47.276Z,8.65
2023-01-12T03:57:16.941Z,8.62
2023-01-12T03:59:45.238Z,8.60
2023-01-12T04:02:13.758Z,8.54
2023-01-12T04:04:43.100Z,8.62
2023-01-12T04:07:10.910Z,8.55
2023-01-12T04:09:38.750Z,8.60
2023-01-12T04:12:12.968Z,8.60
2023-01-12T04:14:42.485Z,8.83
2023-01-12T04:17:13.347Z,8.62
2023-01-12T04:19:43.412Z,8.79
2023-01-12T04:22:33.864Z,8.63
2023-01-12T04:25:01.787Z,8.65
2023-01-12T04:27:29.973Z,8.61
2023-01-12T04:29:57.888Z,8.57
2023-01-12T04:32:25.764Z,8.59
2023-01-12T04:34:55.160Z,8.59
2023-01-12T04:37:23.041Z,8.57
2023-01-12T04:39:50.902Z,8.45
2023-01-12T04:42:44.530Z,8.61
2023-01-12T04:45:12.870Z,8.55
2023-01-12T04:47:40.780Z,8.48
2023-01-12T04:50:11.994Z,8.47
2023-01-12T04:52:40.259Z,8.55
2023-01-12T04:55:08.833Z,8.56
2023-01-12T04:57:36.906Z,8.52
2023-01-12T05:00:05.979Z,8.37
2023-01-12T05:02:33.944Z,8.32
2023-01-12T05:05:01.837Z,8.44
2023-01-12T05:07:31.209Z,8.38
2023-01-12T05:10:16.459Z,8.37
2023-01-12T05:12:44.330Z,8.37
2023-01-12T05:15:12.580Z,8.38
2023-01-12T05:17:40.418Z,8.45
2023-01-12T05:20:09.973Z,8.45
2023-01-12T05:22:39.492Z,8.46
2023-01-12T05:25:08.687Z,8.33
2023-01-12T05:27:36.670Z,8.44
2023-01-12T05:30:05.506Z,8.37
2023-01-12T05:32:37.614Z,8.33
2023-01-12T05:35:06.831Z,8.44
2023-01-12T05:37:35.606Z,8.36
2023-01-12T05:40:05.829Z,8.34
2023-01-12T05:42:50.959Z,8.31
2023-01-12T05:45:18.936Z,8.37
2023-01-12T05:47:46.801Z,8.38
2023-01-12T05:50:14.729Z,8.32
2023-01-12T05:52:43.256Z,8.27
2023-01-12T05:55:12.771Z,8.40
2023-01-12T05:57:40.649Z,8.36
2023-01-12T06:00:10.578Z,8.41
2023-01-12T06:02:40.251Z,8.38
2023-01-12T06:05:09.617Z,8.36
2023-01-12T06:07:38.297Z,8.38
2023-01-12T06:10:07.122Z,8.40
2023-01-12T06:12:54.101Z,8.35
2023-01-12T06:15:21.914Z,8.33
2023-01-12T06:17:49.728Z,8.32
2023-01-12T06:20:18.021Z,8.29
2023-01-12T06:22:46.331Z,8.24
2023-01-12T06:25:14.255Z,8.40
2023-01-12T06:27:43.593Z,8.34
2023-01-12T06:30:12.893Z,8.40
2023-01-12T06:32:41.600Z,8.31
2023-01-12T06:35:18.715Z,8.30
2023-01-12T06:37:47.978Z,8.40
2023-01-12T06:40:16.604Z,8.32
2023-01-12T06:42:46.111Z,8.45
2023-01-12T06:45:14.209Z,8.43
2023-01-12T06:47:46.119Z,8.49
2023-01-12T06:50:14.313Z,8.33
2023-01-12T06:52:42.449Z,8.45
2023-01-12T06:55:10.616Z,8.61
2023-01-12T06:57:38.483Z,8.45
2023-01-12T07:00:09.447Z,8.48
2023-01-12T07:02:37.347Z,8.49
2023-01-12T07:05:05.922Z,8.49
2023-01-12T07:07:33.967Z,8.46
2023-01-12T07:10:01.889Z,8.47
2023-01-12T07:12:29.855Z,8.58
2023-01-12T07:14:59.401Z,8.71
2023-01-12T07:17:28.836Z,8.72
2023-01-12T07:19:56.667Z,8.63
2023-01-12T07:22:26.115Z,8.72
2023-01-12T07:24:54.459Z,8.76
2023-01-12T07:27:23.415Z,8.72
2023-01-12T07:29:51.438Z,8.74
2023-01-12T07:32:19.656Z,8.84
2023-01-12T07:34:49.032Z,8.74
2023-01-12T07:37:16.989Z,8.79
2023-01-12T07:39:44.797Z,8.84
2023-01-12T07:42:24.635Z,8.79
2023-01-12T07:44:53.437Z,8.79
2023-01-12T07:47:21.584Z,8.82
2023-01-12T07:49:51.653Z,8.92
2023-01-12T07:52:21.983Z,8.97
2023-01-12T07:54:49.805Z,9.12
2023-01-12T07:57:18.366Z,9.06
2023-01-12T07:59:46.149Z,9.06
2023-01-12T08:02:17.031Z,9.13
2023-01-12T08:04:45.650Z,9.24
2023-01-12T08:07:15.870Z,9.26
2023-01-12T08:09:43.754Z,9.24
2023-01-12T08:12:11.679Z,9.27
2023-01-12T08:14:41.702Z,9.32
2023-01-12T08:17:14.798Z,9.41
2023-01-12T08:19:49.179Z,9.29
2023-01-12T08:22:21.828Z,9.37
2023-01-12T08:24:53.409Z,9.29
2023-01-12T08:27:26.655Z,9.46
2023-01-12T08:29:57.560Z,9.49
2023-01-12T08:32:27.963Z,9.45
2023-01-12T08:35:01.656Z,9.38
2023-01-12T08:37:33.838Z,9.41
2023-01-12T08:40:02.194Z,9.45
2023-01-12T08:42:31.931Z,9.50
2023-01-12T08:44:59.870Z,9.48
2023-01-12T08:47:30.790Z,9.47
2023-01-12T08:50:00.529Z,9.46
2023-01-12T08:52:32.211Z,9.53
2023-01-12T08:55:01.802Z,9.52
2023-01-12T08:57:30.116Z,9.58
2023-01-12T08:59:58.310Z,9.56
2023-01-12T09:02:27.091Z,9.63
2023-01-12T09:04:55.519Z,9.66
2023-01-12T09:07:23.478Z,9.67
2023-01-12T09:09:51.325Z,9.56
2023-01-12T09:12:22.106Z,9.62
2023-01-12T09:14:50.836Z,9.68
2023-01-12T09:17:19.368Z,9.63
2023-01-12T09:19:49.844Z,9.69
2023-01-12T09:22:17.681Z,9.87
2023-01-12T09:24:45.548Z,9.81
2023-01-12T09:27:13.547Z,9.77
2023-01-12T09:29:42.885Z,9.78
2023-01-12T09:32:10.820Z,9.80
2023-01-12T09:34:38.689Z,9.69
2023-01-12T09:37:06.624Z,9.87
2023-01-12T09:39:34.397Z,9.81
2023-01-12T09:42:19.772Z,9.82
2023-01-12T09:45:08.851Z,9.78
2023-01-12T09:47:39.762Z,10.00
2023-01-12T09:50:11.750Z,10.02
2023-01-12T09:52:45.317Z,9.94
2023-01-12T09:55:17.631Z,10.05
2023-01-12T09:58:19.237Z,10.06
2023-01-12T10:00:52.719Z,10.19
2023-01-12T10:03:27.297Z,10.14
2023-01-12T10:05:58.056Z,10.14
2023-01-12T10:08:33.702Z,10.18
2023-01-12T10:11:09.530Z,10.23
2023-01-12T10:13:56.184Z,10.11
2023-01-12T10:16:34.876Z,10.24
2023-01-12T10:19:12.238Z,10.29
2023-01-12T10:21:41.602Z,10.22
2023-01-12T10:24:13.722Z,10.22
2023-01-12T10:26:44.342Z,10.22
2023-01-12T10:29:13.142Z,10.10
2023-01-12T10:31:42.414Z,10.19
2023-01-12T10:34:12.356Z,10.27
2023-01-12T10:36:44.226Z,10.22
2023-01-12T10:39:29.163Z,10.24
2023-01-12T10:42:40.515Z,10.29
2023-01-12T10:45:18.064Z,10.23
2023-01-12T10:47:48.731Z,10.24
2023-01-12T10:50:29.037Z,10.23
2023-01-12T10:53:03.549Z,10.18
2023-01-12T10:55:34.955Z,10.24
2023-01-12T10:58:03.366Z,10.14
2023-01-12T11:00:32.216Z,10.23
2023-01-12T11:03:02.517Z,10.36
2023-01-12T11:05:35.595Z,10.33
2023-01-12T11:08:04.356Z,10.30
2023-01-12T11:10:37.503Z,10.40
2023-01-12T11:13:09.097Z,10.26
2023-01-12T11:15:40.400Z,10.50
2023-01-12T11:18:29.459Z,10.38
2023-01-12T11:21:04.034Z,10.46
2023-01-12T11:23:37.900Z,10.50
2023-01-12T11:26:16.964Z,10.42
2023-01-12T11:28:48.825Z,10.52
2023-01-12T11:31:22.476Z,10.40
2023-01-12T11:33:56.177Z,10.56
2023-01-12T11:36:28.495Z,10.39
2023-01-12T11:39:02.625Z,10.46
2023-01-12T11:41:42.373Z,10.55
2023-01-12T11:44:16.370Z,10.55
2023-01-12T11:46:47.347Z,10.55
2023-01-12T11:49:24.060Z,10.62
2023-01-12T11:51:56.151Z,10.58
2023-01-12T11:54:25.555Z,10.58
2023-01-12T11:57:27.830Z,10.65
2023-01-12T12:00:11.491Z,10.64
2023-01-12T12:02:42.458Z,10.66
2023-01-12T12:05:22.958Z,10.58
2023-01-12T12:08:06.501Z,10.51
2023-01-12T12:10:41.483Z,10.45
2023-01-12T12:13:23.500Z,10.49
2023-01-12T12:16:03.448Z,10.42
2023-01-12T12:18:44.197Z,10.47
2023-01-12T12:21:37.334Z,10.36
2023-01-12T12:24:19.263Z,10.35
2023-01-12T12:26:54.573Z,10.27
2023-01-12T12:29:34.154Z,10.42
2023-01-12T12:32:15.248Z,10.33
2023-01-12T12:34:55.415Z,10.27
2023-01-12T12:37:37.719Z,10.32
2023-01-12T12:40:17.857Z,10.33
2023-01-12T12:43:13.602Z,10.39
2023-01-12T12:45:49.475Z,10.49
2023-01-12T12:48:21.375Z,10.42
2023-01-12T12:50:58.324Z,10.53
2023-01-12T12:53:31.201Z,10.51
2023-01-12T12:56:02.513Z,10.63
2023-01-12T12:58:42.899Z,10.68
2023-01-12T13:01:59.897Z,10.54
2023-01-12T13:05:05.381Z,10.60
2023-01-12T13:07:37.867Z,10.62
2023-01-12T13:10:27.156Z,10.61
2023-01-12T13:13:02.175Z,10.61
2023-01-12T13:15:36.619Z,10.66
2023-01-12T13:18:07.212Z,10.71
2023-01-12T13:21:02.421Z,10.61
2023-01-12T13:23:52.338Z,10.58
2023-01-12T13:26:52.327Z,10.56
2023-01-12T13:29:40.263Z,10.65
2023-01-12T13:32:35.896Z,10.67
2023-01-12T13:35:04.927Z,10.61
2023-01-12T13:37:44.825Z,10.61
2023-01-12T13:40:19.935Z,10.64
2023-01-12T13:43:08.881Z,10.72
2023-01-12T13:45:38.048Z,10.79
2023-01-12T13:48:07.890Z,10.71
2023-01-12T13:50:37.745Z,10.72
2023-01-12T13:53:06.235Z,10.79
2023-01-12T13:55:36.111Z,10.64
2023-01-12T13:58:06.806Z,10.57
2023-01-12T14:00:35.693Z,10.65
2023-01-12T14:03:05.987Z,10.59
2023-01-12T14:05:57.333Z,10.73
2023-01-12T14:08:52.500Z,10.61
2023-01-12T14:11:37.481Z,10.62
2023-01-12T14:14:43.681Z,10.66
2023-01-12T14:17:36.184Z,10.58
2023-01-12T14:20:04.105Z,10.71
2023-01-12T14:22:32.261Z,10.64
2023-01-12T14:25:15.547Z,10.67
2023-01-12T14:27:50.611Z,10.50
2023-01-12T14:30:20.705Z,10.52
2023-01-12T14:32:51.208Z,10.50
2023-01-12T14:35:21.564Z,10.63
2023-01-12T14:37:52.442Z,10.50
2023-01-12T14:40:23.698Z,10.58
2023-01-12T14:43:09.536Z,10.49
2023-01-12T14:45:59.916Z,10.54
2023-01-12T14:48:29.527Z,10.47
2023-01-12T14:51:17.555Z,10.44
2023-01-12T14:53:48.059Z,10.64
2023-01-12T14:56:22.909Z,10.54
2023-01-12T14:58:51.212Z,10.62
2023-01-12T15:01:34.480Z,10.49
2023-01-12T15:04:03.606Z,10.52
2023-01-12T15:06:33.718Z,10.61
2023-01-12T15:09:01.667Z,10.55
2023-01-12T15:11:32.265Z,10.49
2023-01-12T15:14:02.021Z,10.48
2023-01-12T15:16:48.887Z,10.43
2023-01-12T15:19:37.139Z,10.52
2023-01-12T15:22:28.438Z,10.55
2023-01-12T15:25:14.316Z,10.55
2023-01-12T15:27:42.281Z,10.48
2023-01-12T15:30:12.535Z,10.57
2023-01-12T15:32:48.263Z,10.49
2023-01-12T15:35:21.141Z,10.55
2023-01-12T15:37:49.281Z,10.44
2023-01-12T15:40:19.546Z,10.39
2023-01-12T15:42:48.021Z,10.50
2023-01-12T15:45:23.687Z,10.56
2023-01-12T15:47:52.984Z,10.41
2023-01-12T15:50:20.792Z,10.50
2023-01-12T15:52:51.143Z,10.49
2023-01-12T15:55:21.889Z,10.49
2023-01-12T15:57:52.238Z,10.42
2023-01-12T16:00:22.363Z,10.53
2023-01-12T16:02:53.470Z,10.39
2023-01-12T16:05:23.551Z,10.38
2023-01-12T16:07:51.674Z,10.33
2023-01-12T16:10:20.243Z,10.39
2023-01-12T16:12:48.937Z,10.37
2023-01-12T16:15:19.232Z,10.40
2023-01-12T16:17:47.483Z,10.52
2023-01-12T16:20:19.183Z,10.30
2023-01-12T16:22:47.877Z,10.39
2023-01-12T16:25:16.850Z,10.37
2023-01-12T16:27:44.804Z,10.43
2023-01-12T16:30:16.295Z,10.34
2023-01-12T16:32:46.602Z,10.38
2023-01-12T16:35:16.756Z,10.44
2023-01-12T16:37:44.940Z,10.49
2023-01-12T16:40:13.792Z,10.40
2023-01-12T16:42:41.703Z,10.43
2023-01-12T16:45:10.578Z,10.40
2023-01-12T16:47:38.512Z,10.52
2023-01-12T16:50:07.384Z,10.54
2023-01-12T16:52:36.651Z,10.53
2023-01-12T16:55:05.637Z,10.50
2023-01-12T16:57:34.817Z,10.37
2023-01-12T17:00:02.864Z,10.43
2023-01-12T17:02:32.142Z,10.47
2023-01-12T17:05:00.421Z,10.37
2023-01-12T17:07:29.024Z,10.34
2023-01-12T17:09:59.203Z,10.33
2023-01-12T17:12:27.310Z,10.37
2023-01-12T17:14:55.234Z,10.41
2023-01-12T17:17:23.407Z,10.50
2023-01-12T17:19:51.425Z,10.40
2023-01-12T17:22:20.229Z,10.62
2023-01-12T17:24:48.259Z,10.46
2023-01-12T17:27:17.730Z,10.85
2023-01-12T17:29:47.987Z,10.69
2023-01-12T17:32:16.074Z,10.52
2023-01-12T17:34:47.892Z,10.55
2023-01-12T17:37:17.018Z,10.50
2023-01-12T17:39:45.008Z,10.50
2023-01-12T17:42:32.087Z,10.48
2023-01-12T17:45:02.320Z,10.52
2023-01-12T17:47:30.489Z,10.55
2023-01-12T17:49:58.638Z,10.58
2023-01-12T17:52:26.580Z,10.53
2023-01-12T17:54:56.201Z,10.50
2023-01-12T17:57:24.639Z,10.46
2023-01-12T17:59:52.733Z,10.42
2023-01-12T18:02:22.427Z,10.45
2023-01-12T18:04:50.541Z,10.50
2023-01-12T18:07:18.644Z,10.42
2023-01-12T18:09:46.535Z,10.54
2023-01-12T18:12:16.808Z,10.48
2023-01-12T18:14:44.905Z,10.37
2023-01-12T18:17:12.833Z,10.48
2023-01-12T18:19:42.674Z,10.35
2023-01-12T18:22:11.205Z,10.24
2023-01-12T18:24:39.354Z,10.38
2023-01-12T18:27:07.403Z,10.35
2023-01-12T18:29:35.304Z,10.42
2023-01-12T18:32:03.250Z,10.40
2023-01-12T18:34:31.221Z,10.43
2023-01-12T18:37:00.556Z,10.44
2023-01-12T18:39:28.482Z,10.34
2023-01-12T18:42:13.835Z,10.33
2023-01-12T18:44:41.835Z,10.33
2023-01-12T18:47:32.538Z,10.25
2023-01-12T18:50:20.458Z,10.35
2023-01-12T18:53:07.099Z,10.30
2023-01-12T18:55:37.365Z,10.32
2023-01-12T18:58:05.321Z,10.33
2023-01-12T19:00:33.281Z,10.29
2023-01-12T19:03:01.469Z,10.37
2023-01-12T19:05:35.286Z,10.26
2023-01-12T19:08:25.594Z,10.30
2023-01-12T19:10:52.755Z,10.35
2023-01-12T19:13:38.576Z,10.26
2023-01-12T19:16:24.994Z,10.35
2023-01-12T19:18:53.273Z,10.27
2023-01-12T19:21:38.518Z,10.22
2023-01-12T19:24:28.145Z,10.27
2023-01-12T19:27:13.468Z,10.26
2023-01-12T19:29:42.779Z,10.26
2023-01-12T19:32:12.694Z,10.22
2023-01-12T19:34:40.735Z,10.17
2023-01-12T19:37:08.683Z,10.27
2023-01-12T19:39:59.462Z,10.21
2023-01-12T19:42:46.173Z,10.27
2023-01-12T19:45:14.290Z,10.22
2023-01-12T19:47:42.316Z,10.32
2023-01-12T19:50:12.131Z,10.30
2023-01-12T19:52:41.626Z,10.31
2023-01-12T19:55:13.604Z,10.23
2023-01-12T19:57:42.985Z,10.33
2023-01-12T20:00:14.904Z,10.27
2023-01-12T20:02:43.050Z,10.26
2023-01-12T20:05:13.600Z,10.07
2023-01-12T20:07:41.725Z,10.14
2023-01-12T20:10:11.726Z,10.19
2023-01-12T20:12:39.674Z,10.24
2023-01-12T20:15:08.716Z,10.26
2023-01-12T20:17:36.940Z,10.31
2023-01-12T20:20:08.322Z,10.14
2023-01-12T20:22:36.483Z,10.20
2023-01-12T20:25:05.104Z,10.11
2023-01-12T20:27:35.482Z,10.10
2023-01-12T20:30:04.133Z,10.09
2023-01-12T20:32:35.629Z,10.15
2023-01-12T20:35:05.025Z,10.10
2023-01-12T20:37:34.164Z,10.08
2023-01-12T20:40:02.599Z,9.99
2023-01-12T20:42:32.022Z,10.08
2023-01-12T20:45:02.299Z,9.98
2023-01-12T20:47:33.629Z,10.11
2023-01-12T20:50:03.146Z,10.08
2023-01-12T20:52:31.154Z,10.11
2023-01-12T20:54:58.973Z,10.17
2023-01-12T20:57:27.182Z,10.13
2023-01-12T20:59:55.467Z,10.18
2023-01-12T21:02:26.540Z,10.17
2023-01-12T21:04:54.443Z,10.18
2023-01-12T21:07:22.394Z,10.30
2023-01-12T21:09:50.421Z,10.21
2023-01-12T21:12:19.360Z,10.31
2023-01-12T21:14:47.297Z,10.20
2023-01-12T21:17:16.726Z,10.35
2023-01-12T21:19:45.919Z,10.30
2023-01-12T21:22:13.863Z,10.32
2023-01-12T21:24:41.869Z,10.35
2023-01-12T21:27:09.944Z,10.30
2023-01-12T21:29:38.020Z,10.33
2023-01-12T21:32:06.398Z,10.28
2023-01-12T21:34:34.397Z,10.34
2023-01-12T21:37:03.795Z,10.36
2023-01-12T21:39:31.755Z,10.43
2023-01-12T21:42:17.091Z,10.51
2023-01-12T21:44:45.352Z,10.32
2023-01-12T21:47:13.279Z,10.42
2023-01-12T21:49:41.208Z,10.43
2023-01-12T21:52:10.573Z,10.38
2023-01-12T21:54:38.515Z,10.37
2023-01-12T21:57:06.525Z,10.43
2023-01-12T21:59:34.420Z,10.38
2023-01-12T22:02:02.494Z,10.36
2023-01-12T22:04:32.550Z,10.40
2023-01-12T22:07:00.528Z,10.48
2023-01-12T22:09:30.374Z,10.40
2023-01-12T22:11:58.304Z,10.46
2023-01-12T22:14:26.401Z,10.49
2023-01-12T22:16:54.358Z,10.46
2023-01-12T22:19:22.323Z,10.46
2023-01-12T22:21:50.807Z,10.48
2023-01-12T22:24:18.875Z,10.40
2023-01-12T22:26:48.957Z,10.52
2023-01-12T22:29:17.055Z,10.49
2023-01-12T22:31:44.957Z,10.55
2023-01-12T22:34:12.832Z,10.58
2023-01-12T22:36:43.178Z,10.61
2023-01-12T22:39:12.798Z,10.55
2023-01-12T22:41:41.059Z,10.41
2023-01-12T22:44:10.526Z,10.52
2023-01-12T22:46:38.551Z,10.56
2023-01-12T22:49:07.290Z,10.58
2023-01-12T22:51:35.722Z,10.74
2023-01-12T22:54:03.548Z,10.73
2023-01-12T22:56:31.587Z,10.54
2023-01-12T22:58:59.574Z,10.56
2023-01-12T23:01:29.083Z,10.56
2023-01-12T23:03:59.043Z,10.51
2023-01-12T23:06:27.853Z,10.51
2023-01-12T23:08:55.804Z,10.56
2023-01-12T23:11:26.014Z,10.60
2023-01-12T23:13:54.912Z,10.56
2023-01-12T23:16:23.655Z,10.49
2023-01-12T23:18:55.393Z,10.62
2023-01-12T23:21:25.283Z,10.67
2023-01-12T23:23:54.988Z,10.62
2023-01-12T23:26:26.236Z,10.54
2023-01-12T23:28:56.287Z,10.56
2023-01-12T23:31:26.183Z,10.61
2023-01-12T23:33:56.984Z,10.69
2023-01-12T23:36:26.826Z,10.61
2023-01-12T23:38:55.686Z,10.59
2023-01-12T23:41:25.571Z,10.78
2023-01-12T23:43:56.130Z,10.56
2023-01-12T23:46:24.635Z,10.62
2023-01-12T23:48:54.212Z,10.63
2023-01-12T23:51:24.681Z,10.49
2023-01-12T23:53:52.962Z,10.51
2023-01-12T23:56:22.187Z,10.57
2023-01-12T23:58:50.398Z,10.49
